Date,TemperatureHighF,TemperatureAvgF,TemperatureLowF,DewpointHighF,DewpointAvgF,DewpointLowF,HumidityHigh,HumidityAvg,HumidityLow,PressureMaxIn,PressureMinIn,WindSpeedMaxMPH,WindSpeedAvgMPH,GustSpeedMaxMPH,PrecipitationSumIn
2013-1-1,69.1,61.2,50.3,66.7,57.1,44.1,93,86,76,30.15,29.82,29,6,29,0.05
2013-1-2,50.3,43.6,40.7,44.4,39.5,37.2,97,85,74,30.29,30.12,19,4,19,0.17
2013-1-3,49.7,46.0,41.9,39.0,37.2,34.2,89,72,56,30.37,30.25,19,5,19,0.00
2013-1-4,49.9,48.1,44.9,42.5,39.5,36.6,89,72,67,30.40,30.30,23,7,23,0.00
2013-1-5,49.6,47.6,45.4,46.0,42.5,38.8,92,82,70,30.33,30.22,18,4,18,0.02
2013-1-6,63.4,50.7,42.0,48.9,44.5,39.5,92,80,56,30.33,30.22,15,3,15,0.00
2013-1-7,60.4,52.2,38.4,55.3,48.1,34.5,93,86,76,30.28,29.96,15,2,15,0.01
2013-1-8,68.1,63.5,56.9,66.4,61.8,54.9,96,94,92,29.96,29.72,29,6,29,0.09
2013-1-9,68.8,62.6,56.4,67.3,60.7,54.4,98,94,90,30.01,29.77,29,6,29,0.92
2013-1-10,69.0,58.3,51.7,56.1,52.8,49.0,96,83,59,30.08,29.99,16,3,16,0.01
2013-1-11,74.8,64.3,52.1,69.6,61.8,49.8,96,92,83,30.02,29.79,22,5,22,0.01
2013-1-12,76.3,70.7,68.9,72.0,69.0,67.6,96,94,84,29.81,29.60,33,14,33,0.00
2013-1-13,71.4,55.6,47.0,69.6,47.1,39.0,94,74,53,30.07,29.67,28,8,28,0.00
2013-1-14,50.4,45.9,42.9,43.8,39.9,36.3,92,80,66,30.16,30.03,18,6,18,0.00
2013-1-15,45.9,43.5,41.4,43.7,41.1,37.3,94,91,84,30.20,30.00,22,8,22,0.13
2013-1-16,58.8,45.6,35.8,37.8,29.6,20.9,84,57,23,30.36,30.18,28,9,28,0.00
2013-1-17,67.2,48.5,32.9,42.9,35.1,26.0,85,63,35,30.43,30.29,16,3,16,0.00
2013-1-18,65.0,52.0,38.9,50.7,44.3,35.0,89,76,54,30.47,30.28,13,2,13,0.00
2013-1-19,71.6,59.0,45.2,57.5,50.7,42.1,93,76,51,30.29,30.13,19,2,19,0.00
2013-1-20,71.7,59.4,46.1,59.8,53.2,43.6,95,81,59,30.22,30.07,14,2,14,0.01
2013-1-21,70.7,60.5,51.6,62.2,53.4,47.6,93,79,48,30.20,30.08,13,2,15,0.00
2013-1-22,71.5,59.9,47.8,61.1,53.5,44.8,94,81,58,30.27,30.13,16,2,16,0.00
2013-1-23,76.1,65.3,56.6,66.8,60.5,54.0,94,85,69,30.30,30.19,19,4,19,0.01
2013-1-24,79.8,67.2,59.9,67.8,62.4,57.6,95,85,64,30.26,30.10,25,7,25,0.00
2013-1-25,78.2,64.3,60.2,68.4,61.6,58.5,96,91,69,30.14,30.01,27,7,27,0.02
2013-1-26,76.3,68.1,62.9,67.0,62.9,61.2,94,84,66,30.11,30.01,29,8,29,0.00
2013-1-27,75.5,69.5,64.0,70.1,66.6,61.1,95,91,83,30.05,29.92,29,9,29,0.00
2013-1-28,76.5,71.1,68.8,70.7,68.3,66.9,95,91,82,30.04,29.87,31,13,31,0.00
2013-1-29,83.3,72.8,68.2,71.6,67.2,46.6,95,84,43,29.89,29.56,39,15,39,0.00
2013-1-30,69.6,61.8,51.8,46.7,26.0,13.2,44,27,12,30.22,29.72,35,12,35,0.00
2013-1-31,69.4,53.7,35.9,49.3,33.8,20.4,79,49,23,30.31,30.18,17,3,17,0.00
2013-2-1,70.5,61.3,53.5,56.5,50.9,46.3,89,71,45,30.31,30.18,20,3,20,0.00
2013-2-2,76.9,64.9,58.1,62.2,58.2,53.5,91,80,60,30.21,30.12,19,2,19,0.00
2013-2-3,72.7,63.0,51.1,64.2,58.2,48.6,95,85,66,30.26,29.99,14,3,14,0.01
2013-2-4,77.6,68.2,61.2,66.8,63.0,57.9,91,84,68,29.99,29.76,26,7,26,0.00
2013-2-5,83.1,69.2,59.7,71.6,65.0,57.7,96,87,60,29.93,29.82,17,4,17,0.00
2013-2-6,72.7,67.2,63.3,71.5,65.5,61.2,96,94,92,29.97,29.77,21,5,21,12.47
2013-2-7,75.9,68.2,62.0,70.1,65.3,59.8,95,91,80,29.96,29.84,12,2,12,2.99
2013-2-8,71.7,63.3,57.6,62.2,56.4,52.2,95,79,54,30.16,29.96,22,5,22,0.00
2013-2-9,73.3,68.1,61.4,69.2,65.0,58.0,94,90,85,30.04,29.76,28,9,28,0.00
2013-2-10,83.4,71.6,66.0,72.9,64.3,54.4,94,79,59,29.88,29.71,23,8,23,0.00
2013-2-11,66.3,62.8,59.0,60.2,57.9,54.6,94,85,70,29.94,29.84,22,6,22,0.00
2013-2-12,70.0,61.6,57.8,63.8,58.5,54.6,96,90,73,29.95,29.78,18,5,18,0.00
2013-2-13,63.9,56.5,46.6,57.0,46.7,41.1,91,71,46,30.15,29.94,20,4,20,0.00
2013-2-14,67.1,55.1,41.2,53.5,44.0,36.9,90,69,35,30.12,30.00,14,2,14,0.00
2013-2-15,70.6,60.1,46.5,59.4,50.4,42.5,91,71,47,30.27,30.02,22,3,22,0.01
2013-2-16,69.0,54.7,44.2,44.9,36.5,30.0,80,53,25,30.45,30.25,23,4,23,0.00
2013-2-17,70.1,57.5,38.6,59.0,48.7,35.9,92,74,47,30.25,29.97,31,8,31,0.00
2013-2-18,77.8,69.1,63.1,67.8,62.9,58.9,92,81,68,29.98,29.81,32,12,32,0.00
2013-2-19,67.9,63.3,60.7,63.1,54.1,47.1,96,73,59,30.17,29.96,23,6,23,0.00
2013-2-20,73.0,68.6,63.5,68.1,64.8,57.1,92,88,78,29.99,29.64,27,10,27,0.00
2013-2-21,82.7,73.6,67.2,71.2,64.0,52.1,93,74,50,29.77,29.56,33,11,33,0.00
2013-2-22,71.5,65.9,60.6,57.9,54.2,45.5,80,67,41,29.90,29.76,24,5,24,0.00
2013-2-23,75.9,60.8,49.5,55.3,48.9,43.2,95,67,41,30.00,29.83,18,5,18,0.00
2013-2-24,68.0,57.7,44.9,66.3,55.3,42.7,96,92,83,29.88,29.57,14,2,14,0.01
2013-2-25,74.0,66.7,54.6,68.0,41.7,15.5,97,51,11,29.86,29.49,47,16,47,0.00
2013-2-26,75.2,55.9,37.9,49.0,34.3,22.6,88,48,15,29.99,29.83,19,4,19,0.00
2013-2-27,78.1,61.8,46.0,59.9,44.1,29.6,95,60,18,30.15,29.84,24,4,24,0.00
2013-2-28,63.6,55.1,44.2,37.7,30.7,24.3,53,40,27,30.28,30.14,28,7,28,0.00
2013-3-1,71.3,55.9,42.9,48.7,33.8,23.1,78,46,20,30.26,30.10,22,3,22,0.00
2013-3-2,68.2,56.3,44.1,45.8,36.0,28.5,88,51,24,30.38,30.21,19,5,21,0.00
2013-3-3,71.4,56.5,36.1,54.2,43.1,26.0,78,62,40,30.26,29.98,26,8,26,0.00
2013-3-4,82.7,63.8,59.0,62.3,56.8,54.2,89,79,44,29.98,29.72,33,12,33,0.00
2013-3-5,72.5,64.2,57.5,63.5,45.1,26.9,94,56,23,30.28,29.77,33,9,33,0.00
2013-3-6,62.7,53.6,47.5,47.3,34.5,29.2,87,49,34,30.40,30.19,21,7,21,0.00
2013-3-7,71.9,62.5,50.4,62.0,56.9,46.9,95,82,66,30.20,30.07,24,6,24,0.00
2013-3-8,74.5,69.0,65.0,66.9,64.3,61.8,92,85,76,30.09,29.97,27,10,27,0.00
2013-3-9,76.2,70.0,67.3,68.0,65.8,64.1,92,87,75,29.98,29.63,35,14,35,0.00
2013-3-10,78.5,69.8,60.5,67.6,54.7,37.8,94,64,31,30.03,29.56,34,10,35,0.05
2013-3-11,73.9,62.4,50.9,45.2,34.5,25.2,74,39,17,30.14,29.97,27,6,27,0.00
2013-3-12,74.8,59.2,43.4,53.3,46.6,35.6,87,65,41,30.20,30.04,16,3,16,0.00
2013-3-13,71.5,60.4,46.2,59.9,53.1,43.7,96,78,56,30.37,30.19,17,3,17,0.00
2013-3-14,74.5,63.1,46.8,62.2,55.4,44.8,97,77,56,30.35,30.22,20,5,22,0.00
2013-3-15,76.6,65.3,48.9,63.6,58.1,46.6,96,79,55,30.24,30.02,28,8,28,0.00
2013-3-16,78.2,69.4,62.7,66.0,63.6,59.5,93,82,65,30.03,29.77,33,12,33,0.00
2013-3-17,80.6,71.6,65.2,69.5,66.5,63.1,94,85,69,29.82,29.62,28,10,28,0.00
2013-3-18,81.5,72.5,67.1,69.9,67.4,64.7,95,85,67,29.84,29.67,23,5,23,0.00
2013-3-19,77.8,70.6,65.1,69.0,66.6,60.2,95,87,74,29.94,29.77,17,4,18,0.00
2013-3-20,75.3,69.0,62.6,68.2,59.9,50.0,94,74,55,30.10,29.84,28,6,28,0.00
2013-3-21,74.8,68.5,62.4,66.5,62.1,57.6,91,80,63,30.01,29.64,25,8,25,0.00
2013-3-22,79.4,71.1,69.3,71.9,68.2,66.1,94,91,76,29.70,29.59,21,8,22,0.00
2013-3-23,83.8,73.5,65.9,71.9,69.0,64.1,96,86,63,29.66,29.53,15,2,15,0.00
2013-3-24,69.7,64.4,56.6,65.3,43.8,24.4,97,55,20,30.09,29.62,36,8,36,0.01
2013-3-25,62.4,55.1,46.7,38.9,33.9,26.2,65,46,26,30.31,30.09,21,5,22,0.00
2013-3-26,65.5,57.4,46.8,43.1,36.9,31.6,66,47,30,30.42,30.30,19,3,19,0.00
2013-3-27,67.2,60.5,50.4,58.3,49.9,38.7,81,68,57,30.32,30.15,23,5,23,0.00
2013-3-28,73.5,67.8,64.1,63.1,60.8,57.8,91,79,67,30.17,30.09,22,7,22,0.00
2013-3-29,77.3,69.3,62.2,65.6,63.2,60.0,93,82,63,30.14,30.02,29,7,29,0.00
2013-3-30,80.5,71.3,65.5,69.6,66.2,62.8,92,85,68,30.07,29.90,26,8,26,0.00
2013-3-31,80.3,72.7,67.7,70.9,68.1,65.6,95,86,72,29.94,29.75,27,10,27,0.00
2013-4-1,76.0,71.0,66.1,69.9,67.6,64.5,96,89,76,29.99,29.87,21,6,21,0.00
2013-4-2,77.7,72.7,69.4,72.0,69.3,67.5,94,89,81,29.95,29.73,18,6,18,0.00
2013-4-3,76.6,67.5,56.3,69.4,61.4,51.5,95,81,62,30.08,29.76,26,5,26,0.01
2013-4-4,77.3,63.2,54.3,52.0,49.8,46.3,86,65,35,30.16,30.01,23,7,23,0.00
2013-4-5,68.3,59.3,47.8,56.5,51.0,43.3,88,75,59,30.25,30.05,15,4,15,0.00
2013-4-6,77.2,67.9,59.2,62.9,60.3,55.7,90,78,59,30.07,29.86,32,9,32,0.00
2013-4-7,78.7,71.0,64.9,66.4,64.6,62.2,93,81,65,29.90,29.76,31,10,31,0.00
2013-4-8,78.9,73.0,69.3,70.5,68.7,66.2,93,87,74,29.79,29.62,32,12,32,0.00
2013-4-9,82.0,75.1,70.0,72.8,70.3,67.7,93,85,72,29.69,29.54,36,14,36,0.00
2013-4-10,82.8,72.7,58.3,74.8,68.8,50.8,93,88,57,29.81,29.58,31,11,31,0.00
2013-4-11,73.5,59.5,48.7,52.5,47.5,42.7,89,67,38,29.94,29.75,23,6,25,0.18
2013-4-12,73.8,62.9,48.6,62.9,56.7,46.6,96,81,65,29.93,29.83,21,4,21,0.00
2013-4-13,75.7,69.1,62.7,66.2,62.8,60.5,95,81,65,29.91,29.70,26,6,26,0.00
2013-4-14,88.0,74.6,65.1,73.6,68.6,63.1,95,83,59,29.75,29.62,23,7,23,0.00
2013-4-15,82.8,73.3,70.5,71.8,69.4,68.1,94,88,67,29.77,29.66,29,11,29,0.00
2013-4-16,78.9,74.7,72.4,72.9,71.0,69.7,95,89,81,29.84,29.72,23,9,23,0.00
2013-4-17,80.8,75.6,73.0,74.6,72.8,71.5,96,91,80,29.82,29.61,30,11,30,0.01
2013-4-18,83.0,70.3,59.9,75.8,64.2,48.1,95,82,60,30.01,29.58,36,10,36,0.01
2013-4-19,73.3,58.4,53.1,48.4,42.3,31.3,75,56,27,30.29,30.01,24,8,25,0.01
2013-4-20,71.3,60.4,43.4,56.4,47.8,37.3,88,66,40,30.19,30.00,19,4,19,0.00
2013-4-21,77.3,68.9,59.3,64.4,60.0,54.8,90,74,55,30.08,29.97,20,5,20,0.00
2013-4-22,80.0,71.9,66.0,68.0,66.0,63.1,93,82,65,30.04,29.88,18,6,18,0.00
2013-4-23,81.0,73.4,68.6,71.3,69.1,66.5,94,87,71,29.91,29.78,31,10,31,0.00
2013-4-24,73.4,61.7,50.5,71.3,57.9,47.2,94,87,69,30.17,29.90,24,6,27,0.02
2013-4-25,67.3,62.9,60.2,66.1,57.2,51.3,96,82,66,30.23,30.10,20,4,20,0.16
2013-4-26,70.2,69.3,67.4,68.9,68.0,66.2,96,96,95,30.12,30.02,14,4,14,0.01
2013-4-27,79.9,74.7,71.7,72.5,70.9,70.0,95,88,76,30.04,29.87,19,8,23,0.00
2013-4-28,77.8,71.2,66.3,70.9,68.0,64.3,95,90,79,29.99,29.80,28,3,28,0.18
2013-4-29,79.8,72.3,66.9,72.7,68.6,65.5,97,89,68,29.90,29.74,18,3,18,0.05
2013-4-30,82.2,70.2,64.0,73.8,66.9,62.2,96,90,70,29.79,29.67,27,5,27,1.28
2013-5-1,82.7,75.7,70.3,74.3,71.3,68.6,96,87,71,29.86,29.71,17,5,17,0.00
2013-5-2,78.9,69.6,55.0,71.6,62.0,44.3,95,78,60,30.24,29.80,32,9,32,0.02
2013-5-3,72.2,60.7,51.8,44.7,35.8,32.0,68,42,23,30.29,30.06,37,12,37,0.00
2013-5-4,80.0,63.9,47.5,55.5,46.7,36.8,85,58,24,30.08,29.87,21,5,21,0.00
2013-5-5,83.3,67.6,52.3,61.6,56.6,49.8,95,70,36,30.05,29.92,17,3,17,0.00
2013-5-6,78.6,67.9,56.8,66.5,59.0,54.6,96,75,50,30.08,29.94,18,3,18,0.00
2013-5-7,78.8,70.3,60.5,66.7,62.6,56.7,95,78,59,30.04,29.92,19,4,19,0.00
2013-5-8,80.3,74.1,68.5,70.3,68.4,65.9,93,83,68,29.98,29.87,26,8,26,0.00
2013-5-9,80.2,76.0,73.1,74.1,72.5,70.3,94,89,80,29.91,29.77,25,9,25,0.00
2013-5-10,78.4,75.1,72.6,75.9,72.6,68.5,95,92,81,29.91,29.77,19,4,19,0.03
2013-5-11,84.3,73.3,69.9,70.9,68.9,66.1,95,87,59,30.06,29.88,19,5,19,0.17
2013-5-12,76.9,71.8,64.2,70.8,64.2,58.6,93,77,62,30.14,30.00,20,4,20,0.14
2013-5-13,80.0,72.1,62.3,68.3,64.3,60.5,95,78,55,30.22,30.11,20,4,20,0.00
2013-5-14,81.8,75.4,70.1,71.7,69.4,66.0,89,82,67,30.18,30.02,22,6,22,0.00
2013-5-15,79.4,74.6,73.0,74.0,71.4,70.5,95,90,81,30.08,29.85,31,11,33,0.13
2013-5-16,83.8,75.0,72.4,76.0,71.5,69.8,92,89,76,29.87,29.70,30,13,30,0.00
2013-5-17,87.5,79.0,73.6,76.0,73.4,70.2,93,84,58,29.87,29.75,28,12,28,0.00
2013-5-18,86.2,79.4,75.8,75.0,73.6,71.2,93,83,64,29.88,29.78,31,12,31,0.00
2013-5-19,85.0,79.5,76.0,75.3,74.3,72.8,93,84,67,29.85,29.71,27,13,29,0.00
2013-5-20,85.0,79.4,76.2,76.5,74.6,73.4,93,86,74,29.80,29.68,31,12,31,0.00
2013-5-21,85.3,79.8,76.4,76.6,75.3,74.0,93,86,75,29.76,29.66,28,10,28,0.00
2013-5-22,84.8,80.1,76.8,76.6,75.5,74.3,95,86,74,29.85,29.74,17,5,17,0.00
2013-5-23,85.8,80.3,76.5,77.7,75.9,74.4,94,87,76,29.95,29.82,20,7,20,0.00
2013-5-24,86.0,80.6,75.2,76.4,75.3,70.0,92,84,70,30.04,29.92,24,9,24,0.00
2013-5-25,82.7,79.1,74.5,77.0,75.4,69.2,94,88,77,30.06,29.96,33,9,33,0.67
2013-5-26,84.8,79.7,76.6,74.8,73.6,72.4,91,82,69,30.04,29.93,23,8,23,0.00
2013-5-27,86.0,80.4,76.7,75.9,74.4,72.6,91,82,68,29.98,29.83,29,11,29,0.00
2013-5-28,85.8,80.0,78.1,76.8,75.0,74.2,89,85,72,29.88,29.75,33,13,33,0.00
2013-5-29,83.7,80.4,78.5,76.7,75.5,74.5,89,85,78,29.82,29.69,36,12,36,0.00
2013-5-30,87.3,81.8,78.0,78.0,76.2,74.7,91,84,72,29.80,29.71,27,11,27,0.00
2013-5-31,89.5,82.8,78.4,78.4,76.7,75.4,92,82,68,29.84,29.74,27,10,27,0.00
2013-6-1,89.8,83.3,79.3,78.7,76.8,75.4,89,81,69,29.85,29.75,29,13,29,0.00
2013-6-2,89.4,81.0,72.4,79.6,75.3,69.7,93,83,68,29.99,29.82,24,3,24,0.82
2013-6-3,87.5,79.6,71.9,76.7,73.1,69.8,96,81,67,29.92,29.78,14,2,14,0.00
2013-6-4,87.2,78.8,69.8,75.7,72.0,68.2,96,81,61,29.85,29.77,14,2,14,0.00
2013-6-5,88.8,80.7,71.5,77.1,73.7,69.4,95,80,55,29.83,29.75,16,3,16,0.00
2013-6-6,91.8,82.4,73.7,78.1,75.3,71.5,96,80,58,29.82,29.70,15,2,15,0.00
2013-6-7,88.7,80.5,71.3,77.6,74.9,67.7,93,84,67,29.90,29.80,28,2,30,0.41
2013-6-8,87.8,78.3,70.1,78.5,73.6,68.0,96,86,68,29.88,29.76,27,4,27,0.07
2013-6-9,91.1,83.7,78.7,79.5,76.9,73.9,93,81,63,29.89,29.77,20,6,20,0.03
2013-6-10,89.7,82.9,76.6,78.9,76.2,73.4,94,81,67,29.92,29.86,19,4,19,0.00
2013-6-11,89.3,83.1,76.8,78.7,75.7,72.6,91,79,65,29.98,29.90,21,5,21,0.00
2013-6-12,90.2,84.0,79.4,79.7,76.9,73.8,92,80,60,29.99,29.91,22,7,22,0.02
2013-6-13,88.3,82.0,80.3,79.8,77.2,74.7,90,86,70,29.99,29.88,19,4,19,0.02
2013-6-14,87.9,83.0,80.0,79.8,78.0,76.5,90,85,75,29.93,29.83,20,5,20,0.01
2013-6-15,90.5,84.3,79.1,78.0,76.5,73.0,91,78,60,29.93,29.84,21,7,21,0.00
2013-6-16,90.9,83.8,78.7,79.8,77.2,75.4,91,81,67,29.96,29.88,25,9,25,0.00
2013-6-17,91.0,82.2,79.5,79.5,77.1,75.0,91,85,65,29.93,29.82,25,8,25,0.00
2013-6-18,91.5,83.7,76.4,78.3,76.6,73.9,94,80,63,29.93,29.83,23,8,23,0.00
2013-6-19,90.6,83.7,77.4,77.9,76.0,74.2,92,78,60,29.96,29.87,24,8,24,0.00
2013-6-20,89.8,83.5,77.3,78.9,76.9,75.1,94,81,65,30.00,29.91,26,8,26,0.00
2013-6-21,90.5,83.9,77.8,78.1,76.5,73.0,92,79,61,30.03,29.95,22,7,23,0.00
2013-6-22,91.5,83.6,76.7,78.4,76.0,71.8,94,79,54,29.99,29.88,24,7,24,0.00
2013-6-23,90.3,82.3,77.0,76.9,75.6,72.4,92,81,59,29.95,29.86,27,8,27,0.00
2013-6-24,90.0,84.1,79.5,78.2,76.6,73.8,91,79,63,29.98,29.89,30,10,30,0.00
2013-6-25,89.2,83.5,78.8,78.1,76.5,74.9,91,80,65,29.97,29.87,30,12,30,0.00
2013-6-26,92.2,84.0,78.9,79.4,77.2,74.9,92,81,58,29.93,29.86,26,10,26,0.00
2013-6-27,90.6,83.2,76.7,77.9,76.4,74.2,94,81,63,29.97,29.88,20,6,22,0.00
2013-6-28,95.5,84.4,76.0,78.6,75.6,71.5,95,77,49,29.95,29.80,20,6,20,0.00
2013-6-29,99.0,86.2,75.9,77.8,74.1,70.7,93,70,42,29.84,29.68,19,7,19,0.00
2013-6-30,86.5,77.7,72.2,74.9,71.5,69.1,91,82,58,29.90,29.72,26,6,37,0.30
2013-7-1,93.7,82.0,71.9,76.8,71.8,66.6,94,74,44,29.92,29.80,15,2,15,0.00
2013-7-2,93.0,83.1,74.7,76.1,69.1,62.8,90,65,39,29.99,29.89,18,3,18,0.00
2013-7-3,92.0,79.2,71.1,73.7,70.4,65.8,92,76,43,29.98,29.86,16,3,18,0.00
2013-7-4,88.5,80.4,69.8,76.8,72.4,68.0,96,78,53,29.94,29.85,18,3,18,0.00
2013-7-5,90.5,81.7,70.1,77.8,73.0,68.0,95,76,51,29.92,29.80,16,4,17,0.00
2013-7-6,90.4,82.9,74.5,78.9,75.7,71.5,95,80,64,29.87,29.78,20,4,20,0.00
2013-7-7,90.9,82.6,77.0,78.0,75.2,71.9,93,79,57,29.94,29.83,27,5,27,0.00
2013-7-8,89.3,81.9,74.4,78.6,75.9,70.6,93,83,66,30.06,29.93,31,6,31,0.27
2013-7-9,90.5,84.1,78.4,79.5,77.0,75.4,94,80,64,30.08,29.98,21,5,21,0.00
2013-7-10,90.7,84.2,77.6,79.2,76.3,74.6,94,78,62,30.03,29.91,21,5,21,0.00
2013-7-11,91.3,84.2,76.3,78.5,75.7,72.8,92,77,57,29.97,29.86,20,6,22,0.00
2013-7-12,91.7,83.4,74.7,77.6,74.9,72.1,94,77,58,29.92,29.85,22,5,22,0.00
2013-7-13,92.3,83.0,74.3,78.4,74.0,70.6,95,76,52,29.93,29.84,18,4,18,0.00
2013-7-14,91.5,83.5,75.7,77.3,75.0,72.1,93,77,55,29.88,29.79,22,6,22,0.00
2013-7-15,89.5,83.9,79.2,77.8,76.1,74.5,88,78,65,29.93,29.81,24,8,24,0.00
2013-7-16,86.0,80.7,76.4,78.9,75.5,72.8,91,84,73,30.00,29.89,25,6,25,0.80
2013-7-17,80.2,76.2,73.6,76.5,73.8,71.7,95,92,86,30.10,29.98,19,1,19,1.85
2013-7-18,87.7,80.0,73.8,77.6,74.7,71.2,94,84,67,30.07,29.93,13,2,14,0.07
2013-7-19,89.3,82.6,75.0,79.1,75.2,72.5,94,79,62,30.00,29.87,18,4,18,0.00
2013-7-20,87.5,82.5,78.0,77.7,75.7,74.2,90,80,68,29.94,29.82,19,4,19,0.06
2013-7-21,90.0,84.3,78.7,80.3,77.6,75.7,92,81,65,29.92,29.84,23,8,23,0.00
2013-7-22,90.4,85.3,81.3,79.5,78.1,76.8,88,79,68,29.95,29.86,30,12,30,0.00
2013-7-23,90.5,84.5,78.9,79.4,77.0,74.8,88,79,66,29.97,29.86,30,10,30,0.00
2013-7-24,90.1,84.1,79.0,79.0,76.8,74.7,91,79,66,29.93,29.83,22,8,22,0.00
2013-7-25,91.5,84.0,77.3,80.5,77.0,74.1,92,80,64,29.98,29.92,22,6,22,0.00
2013-7-26,91.1,84.1,78.2,80.6,77.3,75.1,92,81,69,29.99,29.86,28,9,28,0.00
2013-7-27,91.6,84.5,78.0,79.8,76.8,74.8,91,79,61,29.92,29.77,21,10,25,0.00
2013-7-28,90.0,84.0,78.4,78.4,77.1,75.6,91,80,67,29.90,29.82,31,10,31,0.00
2013-7-29,89.0,83.8,79.3,78.1,76.9,75.3,91,80,66,30.01,29.89,32,12,32,0.00
2013-7-30,90.3,83.7,79.1,79.2,77.1,75.6,91,81,67,30.05,29.96,29,9,29,0.00
2013-7-31,90.9,83.1,75.8,78.9,76.2,72.9,92,80,64,30.04,29.92,19,5,19,0.00
2013-8-1,92.8,84.0,76.9,77.9,75.3,71.2,93,77,51,29.98,29.88,14,4,16,0.00
2013-8-2,91.6,83.7,75.8,78.4,75.3,72.2,93,77,54,29.95,29.86,22,5,22,0.00
2013-8-3,91.3,84.2,76.7,79.1,76.8,73.2,91,79,65,29.98,29.90,19,6,20,0.00
2013-8-4,91.4,84.9,79.7,78.9,76.9,74.3,90,78,60,30.01,29.92,23,8,25,0.00
2013-8-5,91.5,82.9,78.9,79.0,76.9,75.2,91,83,62,29.99,29.87,30,8,30,0.00
2013-8-6,92.4,85.0,79.3,79.3,77.3,76.1,91,79,61,29.91,29.81,30,12,30,0.00
2013-8-7,92.4,84.4,78.2,78.9,76.8,75.0,91,79,62,29.89,29.79,33,12,33,0.00
2013-8-8,91.7,84.2,78.1,79.6,77.1,74.9,91,80,65,29.87,29.78,23,8,24,0.00
2013-8-9,92.0,81.1,75.4,78.6,75.4,72.7,93,84,60,29.92,29.82,17,2,17,0.01
2013-8-10,92.5,84.7,77.8,80.8,77.5,74.9,93,80,61,29.96,29.89,17,3,17,0.00
2013-8-11,93.5,84.2,77.8,79.1,76.1,73.6,91,78,58,30.00,29.92,17,3,19,0.00
2013-8-12,91.7,83.5,75.1,78.6,75.9,72.4,93,79,62,30.02,29.92,17,4,17,0.00
2013-8-13,93.8,85.1,76.8,79.4,76.8,73.9,92,78,58,29.99,29.85,21,6,21,0.00
2013-8-14,96.0,84.7,75.7,78.6,75.5,67.8,93,76,49,29.95,29.84,20,6,20,0.00
2013-8-15,94.8,83.4,75.0,78.7,75.4,71.0,92,78,48,29.94,29.85,15,4,16,0.00
2013-8-16,94.2,84.9,78.4,79.2,76.4,72.9,91,77,55,29.96,29.84,23,3,23,0.00
2013-8-17,93.5,82.9,74.1,77.0,73.5,70.0,90,74,55,29.96,29.86,19,4,19,0.00
2013-8-18,92.3,82.5,73.6,77.0,71.5,65.7,92,71,45,29.98,29.90,18,3,18,0.00
2013-8-19,91.5,81.2,70.9,76.3,70.9,65.2,91,73,49,29.99,29.87,17,2,17,0.00
2013-8-20,82.1,78.4,75.4,76.2,74.0,71.8,92,86,79,29.98,29.88,14,2,14,0.18
2013-8-21,90.1,83.9,78.6,79.2,76.7,75.4,91,80,67,29.99,29.93,18,4,18,0.00
2013-8-22,92.7,82.5,75.4,78.3,75.9,72.6,92,81,59,30.01,29.88,16,2,16,0.00
2013-8-23,91.5,83.3,75.9,79.8,75.9,72.8,92,79,61,29.95,29.85,17,2,17,0.12
2013-8-24,92.5,84.2,74.9,79.1,76.2,72.0,93,78,59,29.96,29.88,20,4,20,0.00
2013-8-25,93.1,84.3,77.5,78.3,76.4,73.7,91,78,58,30.00,29.91,19,4,19,0.00
2013-8-26,85.2,78.6,74.9,78.7,75.0,69.7,93,89,76,30.04,29.95,20,2,20,1.41
2013-8-27,89.0,82.9,74.6,79.2,76.3,69.8,92,81,67,30.02,29.94,19,4,23,0.24
2013-8-28,91.7,83.6,75.1,79.5,75.9,72.2,93,78,56,30.03,29.94,18,3,18,0.00
2013-8-29,92.8,83.3,76.1,79.6,75.4,72.7,93,78,56,30.02,29.92,20,2,20,0.00
2013-8-30,92.3,82.7,74.8,78.0,74.3,72.3,93,77,56,29.99,29.87,15,3,15,0.00
2013-8-31,92.0,82.7,74.5,77.9,74.2,70.9,91,77,56,29.92,29.80,16,4,16,0.00
2013-9-1,92.4,83.8,74.7,78.9,75.8,71.9,93,78,59,29.88,29.79,18,5,19,0.00
2013-9-2,92.3,84.4,76.9,79.4,76.3,73.7,92,78,61,29.91,29.82,20,4,20,0.00
2013-9-3,92.8,83.5,74.7,78.4,75.1,71.9,92,77,58,29.96,29.85,16,2,16,0.00
2013-9-4,92.4,83.1,74.7,78.5,74.9,70.8,92,78,54,30.00,29.89,17,2,17,0.00
2013-9-5,90.7,83.9,77.4,78.8,75.9,72.6,91,78,60,30.00,29.93,18,4,18,0.00
2013-9-6,89.6,81.6,75.3,79.7,75.8,72.5,93,83,67,30.01,29.90,18,2,18,0.30
2013-9-7,88.8,80.9,73.8,78.9,75.3,70.6,92,83,69,29.97,29.86,21,2,21,0.19
2013-9-8,87.2,78.3,73.4,78.5,74.3,70.3,93,87,75,29.93,29.83,17,1,17,0.50
2013-9-9,86.8,80.6,75.6,78.5,74.7,71.4,92,83,69,29.90,29.82,25,6,25,0.40
2013-9-10,85.8,78.4,74.4,79.4,74.5,71.8,94,88,75,29.98,29.87,21,3,21,1.78
2013-9-11,84.7,79.1,75.4,79.4,75.3,72.9,93,88,78,30.00,29.92,15,2,16,0.63
2013-9-12,90.0,82.3,75.7,79.1,75.4,72.7,92,80,64,29.97,29.85,15,2,15,0.00
2013-9-13,88.6,81.3,75.1,78.4,75.2,72.3,92,82,68,29.89,29.75,19,2,19,0.00
2013-9-14,89.3,82.0,77.2,79.1,75.8,73.0,91,82,66,29.84,29.76,20,2,20,0.12
2013-9-15,88.0,82.9,79.0,78.7,76.5,74.0,89,81,71,29.88,29.79,25,5,25,0.20
2013-9-16,85.7,80.4,75.8,78.5,76.1,72.6,93,87,79,29.93,29.83,23,4,23,1.41
2013-9-17,87.8,82.3,78.5,80.4,76.6,73.3,92,83,72,29.95,29.85,23,4,23,0.10
2013-9-18,87.5,81.9,76.9,78.8,75.9,73.2,92,83,72,29.93,29.82,20,4,20,0.01
2013-9-19,89.0,82.2,76.9,79.9,76.9,74.3,93,84,71,29.86,29.76,19,3,19,0.30
2013-9-20,89.3,82.1,76.9,80.7,77.5,73.7,91,86,75,29.79,29.65,22,5,22,0.26
2013-9-21,77.8,75.6,73.4,73.8,70.3,66.9,91,84,74,29.78,29.67,28,6,28,0.86
2013-9-22,87.5,77.2,67.4,68.3,65.3,60.1,86,69,41,29.79,29.69,21,4,21,0.00
2013-9-23,89.7,77.3,67.6,76.9,69.4,62.3,89,77,62,29.76,29.68,17,2,17,0.00
2013-9-24,94.7,81.7,71.3,75.3,71.4,67.6,88,73,46,29.85,29.75,12,2,13,0.00
2013-9-25,94.3,81.0,71.2,75.2,70.6,63.2,88,73,41,29.85,29.74,14,2,14,0.01
2013-9-26,90.4,81.3,74.8,77.8,73.5,70.1,87,78,59,29.84,29.76,17,3,17,0.00
2013-9-27,89.0,83.9,79.5,79.1,76.6,73.6,84,79,71,29.85,29.76,24,7,24,0.00
2013-9-28,89.8,84.4,79.9,79.7,76.8,74.7,85,78,69,29.91,29.81,24,8,24,0.00
2013-9-29,88.8,80.0,75.4,76.3,73.3,71.1,87,80,64,29.97,29.83,14,2,14,0.00
2013-9-30,86.8,80.0,74.2,77.1,73.5,69.8,86,81,71,29.89,29.75,13,2,13,0.01
2013-10-1,90.5,82.9,77.6,79.4,75.5,72.3,86,79,65,29.85,29.76,21,6,22,0.00
2013-10-2,90.0,82.7,75.5,77.6,74.5,70.0,85,77,62,29.89,29.81,16,4,16,0.00
2013-10-3,88.0,81.6,75.4,76.9,73.4,70.2,85,77,60,29.88,29.80,18,4,18,0.00
2013-10-4,89.0,81.2,75.6,77.7,73.5,70.2,84,78,68,29.87,29.80,21,4,21,0.00
2013-10-5,88.1,79.3,73.0,77.6,72.6,68.2,86,80,69,29.89,29.80,15,2,15,0.00
2013-10-6,79.5,69.5,59.3,73.7,57.5,49.4,85,67,39,30.08,29.88,23,4,23,0.20
2013-10-7,85.6,69.1,56.4,58.8,52.8,45.0,82,60,27,30.12,30.00,13,2,13,0.00
2013-10-8,82.3,70.1,57.1,62.5,58.3,52.0,84,68,45,30.05,29.94,11,1,11,0.00
2013-10-9,84.2,75.0,63.2,68.8,65.1,58.0,85,72,56,30.00,29.91,13,2,13,0.00
2013-10-10,85.5,78.2,71.0,72.3,68.9,65.2,83,74,59,29.97,29.85,19,4,19,0.00
2013-10-11,88.4,82.2,78.5,78.3,74.8,71.4,84,79,69,29.87,29.78,23,7,23,0.00
2013-10-12,89.0,82.8,78.8,78.6,75.8,73.9,86,80,69,29.96,29.84,19,6,21,0.00
2013-10-13,87.2,80.9,76.6,77.3,73.9,71.0,85,80,67,30.06,29.93,19,4,19,0.00
2013-10-14,84.3,79.9,76.8,74.6,72.6,70.5,83,79,71,30.01,29.88,24,4,24,0.11
2013-10-15,86.3,79.5,73.6,74.6,71.2,68.5,85,76,64,29.92,29.81,19,4,19,0.00
2013-10-16,82.7,75.9,66.1,74.7,68.3,59.7,86,78,67,30.00,29.84,14,3,14,0.00
2013-10-17,80.1,69.9,64.5,64.6,60.8,56.9,82,74,57,30.05,29.91,15,3,15,0.00
2013-10-18,83.1,75.8,70.7,75.5,70.0,64.4,87,82,77,29.94,29.76,13,2,13,0.74
2013-10-19,76.9,68.5,60.3,71.7,58.7,49.3,86,72,43,30.08,29.84,22,6,22,0.04
2013-10-20,78.1,66.5,53.2,67.4,58.4,47.6,85,76,62,30.04,29.87,11,2,11,0.00
2013-10-21,81.3,73.6,68.6,73.7,68.0,63.4,87,83,76,29.92,29.80,21,2,21,1.35
2013-10-22,80.4,70.6,60.9,66.8,60.6,50.2,88,72,48,30.08,29.91,19,4,19,0.00
2013-10-23,82.0,66.5,53.2,58.8,51.3,43.3,85,62,27,30.15,30.06,12,2,12,0.00
2013-10-24,81.5,68.7,55.8,66.3,59.2,51.0,85,73,53,30.17,30.08,12,1,12,0.00
2013-10-25,82.0,73.2,63.1,71.2,65.0,58.3,86,76,65,30.23,30.13,20,4,20,0.00
2013-10-26,82.2,76.1,71.7,70.5,67.7,65.2,83,76,62,30.15,30.02,20,5,20,0.00
2013-10-27,85.3,74.8,66.9,72.8,67.9,62.6,88,80,62,30.04,29.93,15,1,15,0.00
2013-10-28,83.3,76.9,70.9,73.9,70.3,66.2,86,80,71,30.02,29.94,24,6,24,0.01
2013-10-29,83.8,79.4,75.7,74.7,72.2,70.3,84,79,71,30.04,29.92,26,8,26,0.00
2013-10-30,86.4,80.8,78.0,77.1,74.5,73.0,85,81,73,29.96,29.78,26,11,29,0.00
2013-10-31,89.2,80.8,75.4,77.1,73.2,67.9,87,78,56,29.84,29.73,26,7,26,0.26
2013-11-1,83.8,76.6,69.0,72.3,68.8,63.5,85,77,65,29.95,29.77,16,2,16,0.00
2013-11-2,73.3,68.1,63.8,67.5,50.6,44.9,85,54,38,30.20,29.95,27,9,27,0.00
2013-11-3,76.2,62.9,56.7,59.9,51.4,47.2,76,67,48,30.18,29.98,16,2,16,0.00
2013-11-4,78.7,70.6,61.8,67.1,62.5,56.3,83,76,58,30.00,29.88,9,1,10,0.00
2013-11-5,82.8,75.7,68.5,74.0,69.6,64.2,87,81,74,29.95,29.86,25,6,25,0.00
2013-11-6,88.1,74.8,60.0,74.8,67.8,52.0,87,79,58,30.19,29.91,27,5,27,0.33
2013-11-7,68.3,60.8,55.7,52.3,44.6,39.0,76,56,35,30.36,30.19,25,6,25,0.00
2013-11-8,71.0,63.4,56.6,59.7,53.9,45.4,84,71,58,30.31,30.10,19,4,19,0.00
2013-11-9,76.9,68.6,59.6,66.5,61.2,55.1,86,78,61,30.12,30.05,9,1,13,0.00
2013-11-10,72.4,68.2,65.3,64.4,60.8,54.9,87,78,60,30.22,30.09,19,2,19,0.00
2013-11-11,76.4,69.2,63.4,66.6,61.5,57.4,85,77,67,30.19,30.08,14,2,14,0.00
2013-11-12,74.7,65.2,57.2,62.2,56.4,47.6,86,74,54,30.49,30.14,29,8,29,0.00
2013-11-13,58.7,50.8,43.4,47.7,39.1,33.4,82,65,40,30.56,30.35,25,5,25,0.00
2013-11-14,66.6,56.6,43.4,59.5,49.7,38.3,86,78,70,30.35,29.99,12,1,12,0.00
2013-11-15,78.8,66.3,54.2,66.6,60.0,50.4,89,81,63,29.99,29.85,16,2,16,0.00
2013-11-16,79.4,73.0,64.7,73.1,68.4,60.8,89,85,81,29.88,29.74,25,6,25,0.01
2013-11-17,84.6,76.0,72.1,75.0,70.5,68.0,87,83,72,29.88,29.75,16,6,17,0.00
2013-11-18,83.4,74.9,69.3,75.2,69.8,64.0,89,84,74,30.01,29.88,16,2,16,0.01
2013-11-19,73.1,69.4,67.5,65.2,62.9,60.8,84,80,75,30.02,29.92,20,4,20,0.00
2013-11-20,81.9,74.2,68.7,73.0,68.6,63.9,86,83,73,29.93,29.80,15,4,15,0.00
2013-11-21,82.7,77.0,72.7,75.0,71.8,68.6,88,84,77,29.99,29.87,24,7,24,0.00
2013-11-22,78.0,59.5,42.2,73.5,55.7,38.5,92,87,79,30.28,29.97,26,6,26,0.09
2013-11-23,46.8,44.0,41.0,42.5,40.1,37.7,88,86,83,30.36,30.26,24,10,24,0.00
2013-11-24,47.1,45.3,42.5,43.4,41.1,37.7,89,85,80,30.37,30.24,22,6,22,0.11
2013-11-25,46.5,43.0,41.4,42.8,38.9,37.7,88,85,83,30.24,29.99,21,7,21,0.36
2013-11-26,50.4,44.5,39.4,40.7,38.5,35.5,88,80,64,30.33,30.07,33,11,33,0.05
2013-11-27,55.4,44.4,36.2,35.7,33.8,31.8,86,68,41,30.44,30.32,21,4,21,0.00
2013-11-28,59.1,44.5,0.0,45.7,36.3,0.0,86,65,55,30.40,30.30,11,2,12,0.00
2013-11-29,68.6,40.8,0.0,60.0,36.5,0.0,87,52,73,30.39,30.30,18,2,18,0.00
2013-11-30,73.2,66.6,57.3,63.8,58.4,53.4,87,75,65,30.32,30.16,17,3,17,0.00
2013-12-1,77.7,68.9,60.0,66.2,61.1,51.7,87,77,64,30.17,29.94,17,5,17,0.00
2013-12-2,81.2,65.5,55.5,66.9,59.8,52.0,89,82,60,29.94,29.70,13,3,14,0.01
2013-12-3,82.8,69.2,61.1,69.7,63.3,57.2,88,82,62,29.73,29.60,20,6,20,0.01
2013-12-4,80.0,72.2,66.3,71.5,66.9,62.3,88,84,74,29.76,29.65,22,8,22,0.00
2013-12-5,78.9,64.7,43.6,71.8,59.8,38.7,89,84,76,29.97,29.74,24,7,24,0.01
2013-12-6,48.5,41.9,36.6,39.5,35.7,30.1,85,78,69,30.34,29.95,25,9,25,0.00
2013-12-7,36.7,35.5,34.8,32.0,30.1,29.1,84,81,77,30.40,30.23,18,6,18,0.00
2013-12-8,48.8,42.3,35.0,44.3,37.5,30.9,87,83,76,30.24,30.01,10,3,11,0.00
2013-12-9,54.1,49.3,42.9,50.6,45.9,39.3,92,88,86,30.25,29.98,19,5,19,0.02
2013-12-10,48.7,43.3,38.0,39.2,33.5,31.0,87,69,52,30.45,30.25,22,6,22,0.00
2013-12-11,54.0,48.2,46.0,44.0,38.6,34.5,75,69,61,30.45,30.27,15,4,15,0.00
2013-12-12,58.6,51.9,46.7,42.2,40.3,38.5,77,65,49,30.51,30.30,19,5,19,0.00
2013-12-13,69.9,57.5,46.9,62.1,50.4,40.4,85,77,71,30.30,29.84,16,2,16,0.00
2013-12-14,72.1,58.9,46.8,54.7,47.7,38.3,86,68,37,30.29,29.85,26,7,26,0.00
2013-12-15,62.2,47.9,36.0,39.8,35.7,31.1,86,65,35,30.41,30.26,14,3,14,0.00
2013-12-16,67.9,49.3,34.0,47.5,39.5,30.8,88,72,32,30.32,30.19,10,1,11,0.00
2013-12-17,70.5,54.9,38.8,57.1,48.3,35.6,90,80,57,30.30,30.19,14,1,14,0.01
2013-12-18,73.0,60.6,46.5,60.8,53.3,42.8,89,78,57,30.26,30.05,15,3,15,0.01
2013-12-19,76.7,68.8,62.5,67.4,62.6,57.2,86,81,71,30.05,29.79,34,11,34,0.00
2013-12-20,78.6,71.1,66.5,70.4,66.1,62.2,88,84,75,29.82,29.60,33,14,33,0.00
2013-12-21,80.2,71.0,61.7,71.0,63.7,55.6,87,78,56,29.76,29.53,40,10,40,0.00
2013-12-22,74.2,63.5,49.3,57.2,48.9,37.4,84,62,31,30.29,29.75,26,6,26,0.00
2013-12-23,61.4,48.3,39.8,37.7,33.3,28.6,84,59,30,30.49,30.29,18,4,18,0.00
2013-12-24,61.9,51.6,35.2,50.0,43.5,31.1,88,75,59,30.49,30.22,13,2,13,0.00
2013-12-25,70.3,58.6,47.9,59.8,53.1,43.5,87,82,68,30.27,30.16,13,2,13,0.00
2013-12-26,58.6,54.9,52.0,54.5,49.6,46.8,87,82,73,30.34,30.23,19,6,19,0.03
2013-12-27,56.3,53.0,50.7,50.7,48.4,46.6,88,84,78,30.36,30.26,13,3,13,0.05
2013-12-28,65.5,52.9,44.1,47.8,42.7,34.5,87,71,35,30.27,30.02,10,1,10,0.00
2013-12-29,67.9,55.3,42.5,54.3,47.8,38.5,87,77,54,30.08,29.96,16,1,16,0.00
2013-12-30,60.2,45.0,41.8,53.7,39.0,35.3,84,79,73,30.36,30.05,16,6,20,0.04
2013-12-31,47.6,44.6,42.7,42.2,38.5,35.3,87,79,72,30.41,30.23,13,2,13,0.05
2014-1-1,58.2,50.6,45.6,54.6,46.6,42.0,88,86,83,30.23,29.98,10,2,10,0.00
2014-1-2,59.4,52.3,37.5,55.5,40.0,28.7,88,64,41,30.42,30.02,23,6,23,0.01